sensor_id;sensor_type;location;lat;lon;timestamp;P1;durP1;ratioP1;P2;durP2;ratioP2
37559;SDS011;23398;50.928;7.084;2023-07-31T00:01:09;3.05;;;2.05;;
37559;SDS011;23398;50.928;7.084;2023-07-31T00:03:34;4.07;;;2.00;;
37559;SDS011;23398;50.928;7.084;2023-07-31T00:06:00;3.17;;;2.03;;
37559;SDS011;23398;50.928;7.084;2023-07-31T00:08:25;3.40;;;2.00;;
37559;SDS011;23398;50.928;7.084;2023-07-31T00:10:51;4.93;;;2.55;;
37559;SDS011;23398;50.928;7.084;2023-07-31T00:13:17;3.15;;;1.92;;
37559;SDS011;23398;50.928;7.084;2023-07-31T00:15:43;4.68;;;2.15;;
37559;SDS011;23398;50.928;7.084;2023-07-31T00:18:09;4.95;;;2.67;;
37559;SDS011;23398;50.928;7.084;2023-07-31T00:20:34;3.45;;;2.17;;
37559;SDS011;23398;50.928;7.084;2023-07-31T00:23:00;3.65;;;2.20;;
37559;SDS011;23398;50.928;7.084;2023-07-31T00:25:25;5.75;;;2.20;;
37559;SDS011;23398;50.928;7.084;2023-07-31T00:27:51;3.63;;;2.00;;
37559;SDS011;23398;50.928;7.084;2023-07-31T00:30:17;3.28;;;2.55;;
37559;SDS011;23398;50.928;7.084;2023-07-31T00:32:42;3.80;;;2.50;;
37559;SDS011;23398;50.928;7.084;2023-07-31T00:35:08;5.18;;;2.58;;
37559;SDS011;23398;50.928;7.084;2023-07-31T00:37:33;3.55;;;2.45;;
37559;SDS011;23398;50.928;7.084;2023-07-31T00:39:59;4.80;;;2.45;;
37559;SDS011;23398;50.928;7.084;2023-07-31T00:42:24;4.13;;;2.15;;
37559;SDS011;23398;50.928;7.084;2023-07-31T00:44:50;4.20;;;2.03;;
37559;SDS011;23398;50.928;7.084;2023-07-31T00:47:15;3.10;;;2.03;;
37559;SDS011;23398;50.928;7.084;2023-07-31T00:49:41;4.13;;;2.20;;
37559;SDS011;23398;50.928;7.084;2023-07-31T00:52:07;3.83;;;2.30;;
37559;SDS011;23398;50.928;7.084;2023-07-31T00:54:35;2.85;;;2.13;;
37559;SDS011;23398;50.928;7.084;2023-07-31T00:57:00;2.80;;;1.83;;
37559;SDS011;23398;50.928;7.084;2023-07-31T00:59:27;2.88;;;2.05;;
37559;SDS011;23398;50.928;7.084;2023-07-31T01:01:52;4.07;;;2.00;;
37559;SDS011;23398;50.928;7.084;2023-07-31T01:04:18;3.50;;;2.10;;
37559;SDS011;23398;50.928;7.084;2023-07-31T01:06:46;4.07;;;2.03;;
37559;SDS011;23398;50.928;7.084;2023-07-31T01:12:00;4.07;;;2.13;;
37559;SDS011;23398;50.928;7.084;2023-07-31T01:14:27;2.70;;;1.73;;
37559;SDS011;23398;50.928;7.084;2023-07-31T01:16:54;3.58;;;2.00;;
37559;SDS011;23398;50.928;7.084;2023-07-31T01:19:22;3.03;;;2.30;;
37559;SDS011;23398;50.928;7.084;2023-07-31T01:27:34;4.13;;;2.00;;
37559;SDS011;23398;50.928;7.084;2023-07-31T01:30:08;3.45;;;1.90;;
37559;SDS011;23398;50.928;7.084;2023-07-31T01:32:40;2.90;;;1.90;;
37559;SDS011;23398;50.928;7.084;2023-07-31T01:35:07;4.22;;;2.08;;
37559;SDS011;23398;50.928;7.084;2023-07-31T01:37:33;6.50;;;2.22;;
37559;SDS011;23398;50.928;7.084;2023-07-31T01:39:59;2.30;;;1.58;;
37559;SDS011;23398;50.928;7.084;2023-07-31T01:42:24;2.63;;;1.75;;
37559;SDS011;23398;50.928;7.084;2023-07-31T01:44:50;4.78;;;2.10;;
37559;SDS011;23398;50.928;7.084;2023-07-31T01:47:15;3.33;;;1.90;;
37559;SDS011;23398;50.928;7.084;2023-07-31T01:49:41;4.03;;;2.20;;
37559;SDS011;23398;50.928;7.084;2023-07-31T01:52:07;3.97;;;2.08;;
37559;SDS011;23398;50.928;7.084;2023-07-31T01:54:32;2.75;;;1.83;;
37559;SDS011;23398;50.928;7.084;2023-07-31T01:56:58;3.53;;;2.08;;
37559;SDS011;23398;50.928;7.084;2023-07-31T01:59:24;3.25;;;2.08;;
37559;SDS011;23398;50.928;7.084;2023-07-31T02:01:49;3.58;;;2.03;;
37559;SDS011;23398;50.928;7.084;2023-07-31T02:04:15;3.00;;;2.08;;
37559;SDS011;23398;50.928;7.084;2023-07-31T02:06:40;3.67;;;1.85;;
37559;SDS011;23398;50.928;7.084;2023-07-31T02:09:06;3.22;;;2.05;;
37559;SDS011;23398;50.928;7.084;2023-07-31T02:11:31;3.22;;;2.05;;
37559;SDS011;23398;50.928;7.084;2023-07-31T02:13:57;3.22;;;2.05;;
37559;SDS011;23398;50.928;7.084;2023-07-31T02:16:22;2.63;;;1.88;;
37559;SDS011;23398;50.928;7.084;2023-07-31T02:18:48;3.42;;;2.20;;
37559;SDS011;23398;50.928;7.084;2023-07-31T02:21:13;2.60;;;1.75;;
37559;SDS011;23398;50.928;7.084;2023-07-31T02:23:39;3.42;;;2.15;;
37559;SDS011;23398;50.928;7.084;2023-07-31T02:26:04;3.17;;;2.10;;
37559;SDS011;23398;50.928;7.084;2023-07-31T02:28:30;3.60;;;1.88;;
37559;SDS011;23398;50.928;7.084;2023-07-31T02:30:56;2.85;;;2.10;;
37559;SDS011;23398;50.928;7.084;2023-07-31T02:33:21;3.67;;;1.95;;
37559;SDS011;23398;50.928;7.084;2023-07-31T02:35:47;2.65;;;1.80;;
37559;SDS011;23398;50.928;7.084;2023-07-31T02:38:12;4.30;;;2.10;;
37559;SDS011;23398;50.928;7.084;2023-07-31T02:40:39;4.18;;;2.00;;
37559;SDS011;23398;50.928;7.084;2023-07-31T02:43:06;3.35;;;1.73;;
37559;SDS011;23398;50.928;7.084;2023-07-31T02:45:32;3.00;;;2.05;;
37559;SDS011;23398;50.928;7.084;2023-07-31T02:47:57;2.58;;;1.77;;
37559;SDS011;23398;50.928;7.084;2023-07-31T02:50:23;4.05;;;1.73;;
37559;SDS011;23398;50.928;7.084;2023-07-31T02:52:49;3.80;;;1.92;;
37559;SDS011;23398;50.928;7.084;2023-07-31T02:55:14;2.58;;;1.88;;
37559;SDS011;23398;50.928;7.084;2023-07-31T02:57:40;2.97;;;2.05;;
37559;SDS011;23398;50.928;7.084;2023-07-31T03:00:05;4.25;;;2.40;;
37559;SDS011;23398;50.928;7.084;2023-07-31T03:02:32;2.88;;;2.10;;
37559;SDS011;23398;50.928;7.084;2023-07-31T03:04:57;2.38;;;1.77;;
37559;SDS011;23398;50.928;7.084;2023-07-31T03:07:23;3.00;;;2.00;;
37559;SDS011;23398;50.928;7.084;2023-07-31T03:09:49;3.58;;;1.90;;
37559;SDS011;23398;50.928;7.084;2023-07-31T03:12:14;4.75;;;2.17;;
37559;SDS011;23398;50.928;7.084;2023-07-31T03:14:40;3.80;;;2.17;;
37559;SDS011;23398;50.928;7.084;2023-07-31T03:17:05;3.90;;;2.00;;
37559;SDS011;23398;50.928;7.084;2023-07-31T03:19:31;2.55;;;1.90;;
37559;SDS011;23398;50.928;7.084;2023-07-31T03:21:57;3.15;;;2.10;;
37559;SDS011;23398;50.928;7.084;2023-07-31T03:24:23;4.07;;;2.10;;
37559;SDS011;23398;50.928;7.084;2023-07-31T03:26:49;4.28;;;1.88;;
37559;SDS011;23398;50.928;7.084;2023-07-31T03:29:14;2.80;;;1.95;;
37559;SDS011;23398;50.928;7.084;2023-07-31T03:31:40;5.22;;;2.50;;
37559;SDS011;23398;50.928;7.084;2023-07-31T03:34:05;4.13;;;2.30;;
37559;SDS011;23398;50.928;7.084;2023-07-31T03:36:31;3.45;;;2.20;;
37559;SDS011;23398;50.928;7.084;2023-07-31T03:38:57;4.30;;;2.05;;
37559;SDS011;23398;50.928;7.084;2023-07-31T03:41:22;4.57;;;2.13;;
37559;SDS011;23398;50.928;7.084;2023-07-31T03:43:48;3.20;;;2.05;;
37559;SDS011;23398;50.928;7.084;2023-07-31T03:46:18;6.25;;;2.50;;
37559;SDS011;23398;50.928;7.084;2023-07-31T03:48:43;4.75;;;2.38;;
37559;SDS011;23398;50.928;7.084;2023-07-31T03:51:09;4.43;;;2.92;;
37559;SDS011;23398;50.928;7.084;2023-07-31T03:53:34;4.05;;;2.58;;
37559;SDS011;23398;50.928;7.084;2023-07-31T03:56:00;3.75;;;2.28;;
37559;SDS011;23398;50.928;7.084;2023-07-31T03:58:26;4.05;;;2.50;;
37559;SDS011;23398;50.928;7.084;2023-07-31T04:00:51;4.70;;;2.53;;
37559;SDS011;23398;50.928;7.084;2023-07-31T04:03:17;4.30;;;2.80;;
37559;SDS011;23398;50.928;7.084;2023-07-31T04:05:42;4.63;;;2.50;;
37559;SDS011;23398;50.928;7.084;2023-07-31T04:08:08;4.30;;;2.60;;
37559;SDS011;23398;50.928;7.084;2023-07-31T04:10:33;4.35;;;2.78;;
37559;SDS011;23398;50.928;7.084;2023-07-31T04:12:59;3.50;;;2.47;;
37559;SDS011;23398;50.928;7.084;2023-07-31T04:15:25;4.35;;;2.67;;
37559;SDS011;23398;50.928;7.084;2023-07-31T04:17:51;4.53;;;2.78;;
37559;SDS011;23398;50.928;7.084;2023-07-31T04:20:17;5.32;;;3.00;;
37559;SDS011;23398;50.928;7.084;2023-07-31T04:22:42;4.80;;;2.90;;
37559;SDS011;23398;50.928;7.084;2023-07-31T04:25:08;3.22;;;2.17;;
37559;SDS011;23398;50.928;7.084;2023-07-31T04:27:33;4.43;;;2.70;;
37559;SDS011;23398;50.928;7.084;2023-07-31T04:29:59;3.53;;;2.40;;
37559;SDS011;23398;50.928;7.084;2023-07-31T04:32:26;5.20;;;2.53;;
37559;SDS011;23398;50.928;7.084;2023-07-31T04:34:51;3.30;;;2.20;;
37559;SDS011;23398;50.928;7.084;2023-07-31T04:37:17;2.58;;;2.03;;
37559;SDS011;23398;50.928;7.084;2023-07-31T04:39:43;3.35;;;2.60;;
37559;SDS011;23398;50.928;7.084;2023-07-31T04:42:08;3.58;;;2.42;;
37559;SDS011;23398;50.928;7.084;2023-07-31T04:44:34;4.32;;;2.50;;
37559;SDS011;23398;50.928;7.084;2023-07-31T04:47:00;3.75;;;2.60;;
37559;SDS011;23398;50.928;7.084;2023-07-31T04:49:27;4.60;;;2.67;;
37559;SDS011;23398;50.928;7.084;2023-07-31T04:51:52;4.82;;;2.40;;
37559;SDS011;23398;50.928;7.084;2023-07-31T04:54:18;4.43;;;2.75;;
37559;SDS011;23398;50.928;7.084;2023-07-31T04:56:43;4.28;;;2.30;;
37559;SDS011;23398;50.928;7.084;2023-07-31T04:59:09;3.67;;;2.72;;
37559;SDS011;23398;50.928;7.084;2023-07-31T05:01:35;4.45;;;2.60;;
37559;SDS011;23398;50.928;7.084;2023-07-31T05:04:00;4.53;;;2.40;;
37559;SDS011;23398;50.928;7.084;2023-07-31T05:06:26;3.60;;;2.50;;
37559;SDS011;23398;50.928;7.084;2023-07-31T05:08:51;3.53;;;2.40;;
37559;SDS011;23398;50.928;7.084;2023-07-31T05:11:17;2.83;;;2.35;;
37559;SDS011;23398;50.928;7.084;2023-07-31T05:13:42;4.38;;;2.55;;
37559;SDS011;23398;50.928;7.084;2023-07-31T05:16:08;4.38;;;2.45;;
37559;SDS011;23398;50.928;7.084;2023-07-31T05:18:33;4.35;;;2.55;;
37559;SDS011;23398;50.928;7.084;2023-07-31T05:20:59;4.88;;;2.50;;
37559;SDS011;23398;50.928;7.084;2023-07-31T05:23:25;2.67;;;2.30;;
37559;SDS011;23398;50.928;7.084;2023-07-31T05:25:50;3.33;;;2.40;;
37559;SDS011;23398;50.928;7.084;2023-07-31T05:28:16;2.97;;;2.30;;
37559;SDS011;23398;50.928;7.084;2023-07-31T05:30:41;4.57;;;2.40;;
37559;SDS011;23398;50.928;7.084;2023-07-31T05:33:07;3.83;;;2.65;;
37559;SDS011;23398;50.928;7.084;2023-07-31T05:35:32;3.63;;;2.40;;
37559;SDS011;23398;50.928;7.084;2023-07-31T05:37:58;4.82;;;2.38;;
37559;SDS011;23398;50.928;7.084;2023-07-31T05:40:23;2.83;;;2.15;;
37559;SDS011;23398;50.928;7.084;2023-07-31T05:42:49;3.72;;;2.45;;
37559;SDS011;23398;50.928;7.084;2023-07-31T05:45:14;3.50;;;2.50;;
37559;SDS011;23398;50.928;7.084;2023-07-31T05:47:40;4.35;;;2.38;;
37559;SDS011;23398;50.928;7.084;2023-07-31T05:50:06;4.00;;;2.25;;
37559;SDS011;23398;50.928;7.084;2023-07-31T05:52:31;3.47;;;2.55;;
37559;SDS011;23398;50.928;7.084;2023-07-31T05:54:57;2.85;;;2.30;;
37559;SDS011;23398;50.928;7.084;2023-07-31T05:57:23;3.22;;;2.15;;
37559;SDS011;23398;50.928;7.084;2023-07-31T05:59:48;3.33;;;2.50;;
37559;SDS011;23398;50.928;7.084;2023-07-31T06:02:14;3.97;;;2.50;;
37559;SDS011;23398;50.928;7.084;2023-07-31T06:04:40;3.08;;;2.50;;
37559;SDS011;23398;50.928;7.084;2023-07-31T06:07:05;4.10;;;2.05;;
37559;SDS011;23398;50.928;7.084;2023-07-31T06:09:32;3.10;;;2.38;;
37559;SDS011;23398;50.928;7.084;2023-07-31T06:11:57;3.25;;;2.40;;
37559;SDS011;23398;50.928;7.084;2023-07-31T06:14:23;3.65;;;2.60;;
37559;SDS011;23398;50.928;7.084;2023-07-31T06:16:49;4.65;;;2.47;;
37559;SDS011;23398;50.928;7.084;2023-07-31T06:19:14;3.30;;;2.33;;
37559;SDS011;23398;50.928;7.084;2023-07-31T06:21:40;3.53;;;2.50;;
37559;SDS011;23398;50.928;7.084;2023-07-31T06:24:08;3.80;;;2.63;;
37559;SDS011;23398;50.928;7.084;2023-07-31T06:26:33;3.33;;;2.58;;
37559;SDS011;23398;50.928;7.084;2023-07-31T06:28:59;3.63;;;2.60;;
37559;SDS011;23398;50.928;7.084;2023-07-31T06:31:25;3.80;;;2.53;;
37559;SDS011;23398;50.928;7.084;2023-07-31T06:33:50;3.33;;;2.90;;
37559;SDS011;23398;50.928;7.084;2023-07-31T06:36:17;5.05;;;2.70;;
37559;SDS011;23398;50.928;7.084;2023-07-31T06:38:42;2.95;;;2.38;;
37559;SDS011;23398;50.928;7.084;2023-07-31T06:41:08;3.08;;;2.42;;
37559;SDS011;23398;50.928;7.084;2023-07-31T06:43:35;4.38;;;2.67;;
37559;SDS011;23398;50.928;7.084;2023-07-31T06:46:07;3.17;;;2.50;;
37559;SDS011;23398;50.928;7.084;2023-07-31T06:48:33;3.72;;;2.50;;
37559;SDS011;23398;50.928;7.084;2023-07-31T06:51:00;3.65;;;2.53;;
37559;SDS011;23398;50.928;7.084;2023-07-31T06:53:26;3.58;;;2.22;;
37559;SDS011;23398;50.928;7.084;2023-07-31T06:55:51;2.42;;;2.05;;
37559;SDS011;23398;50.928;7.084;2023-07-31T06:58:17;2.47;;;1.90;;
37559;SDS011;23398;50.928;7.084;2023-07-31T07:00:43;3.20;;;2.30;;
37559;SDS011;23398;50.928;7.084;2023-07-31T07:03:09;2.95;;;2.10;;
37559;SDS011;23398;50.928;7.084;2023-07-31T07:05:34;3.38;;;2.30;;
37559;SDS011;23398;50.928;7.084;2023-07-31T07:08:00;2.60;;;2.03;;
37559;SDS011;23398;50.928;7.084;2023-07-31T07:10:25;2.95;;;2.20;;
37559;SDS011;23398;50.928;7.084;2023-07-31T07:12:51;3.88;;;2.38;;
37559;SDS011;23398;50.928;7.084;2023-07-31T07:15:16;4.78;;;2.20;;
37559;SDS011;23398;50.928;7.084;2023-07-31T07:17:42;3.67;;;2.30;;
37559;SDS011;23398;50.928;7.084;2023-07-31T07:20:08;3.72;;;2.13;;
37559;SDS011;23398;50.928;7.084;2023-07-31T07:22:33;2.85;;;2.28;;
37559;SDS011;23398;50.928;7.084;2023-07-31T07:24:59;3.75;;;2.40;;
37559;SDS011;23398;50.928;7.084;2023-07-31T07:27:25;3.03;;;2.30;;
37559;SDS011;23398;50.928;7.084;2023-07-31T07:29:51;3.28;;;2.35;;
37559;SDS011;23398;50.928;7.084;2023-07-31T07:32:17;4.25;;;2.55;;
37559;SDS011;23398;50.928;7.084;2023-07-31T07:34:43;3.05;;;2.22;;
37559;SDS011;23398;50.928;7.084;2023-07-31T07:37:09;2.85;;;2.40;;
37559;SDS011;23398;50.928;7.084;2023-07-31T07:39:34;2.95;;;2.25;;
37559;SDS011;23398;50.928;7.084;2023-07-31T07:42:00;2.88;;;2.17;;
37559;SDS011;23398;50.928;7.084;2023-07-31T07:44:25;3.60;;;2.00;;
37559;SDS011;23398;50.928;7.084;2023-07-31T07:46:51;5.07;;;2.17;;
37559;SDS011;23398;50.928;7.084;2023-07-31T07:49:17;2.83;;;2.42;;
37559;SDS011;23398;50.928;7.084;2023-07-31T07:51:43;2.65;;;2.10;;
37559;SDS011;23398;50.928;7.084;2023-07-31T07:54:08;3.65;;;2.58;;
37559;SDS011;23398;50.928;7.084;2023-07-31T07:56:34;2.67;;;2.30;;
37559;SDS011;23398;50.928;7.084;2023-07-31T07:59:01;3.80;;;2.42;;
37559;SDS011;23398;50.928;7.084;2023-07-31T08:01:26;4.25;;;2.38;;
37559;SDS011;23398;50.928;7.084;2023-07-31T08:03:52;3.90;;;2.42;;
37559;SDS011;23398;50.928;7.084;2023-07-31T08:06:18;4.00;;;2.67;;
37559;SDS011;23398;50.928;7.084;2023-07-31T08:08:43;3.70;;;2.40;;
37559;SDS011;23398;50.928;7.084;2023-07-31T08:11:09;4.47;;;2.47;;
37559;SDS011;23398;50.928;7.084;2023-07-31T08:13:35;2.90;;;2.38;;
37559;SDS011;23398;50.928;7.084;2023-07-31T08:16:02;4.72;;;2.42;;
37559;SDS011;23398;50.928;7.084;2023-07-31T08:18:28;4.30;;;2.72;;
37559;SDS011;23398;50.928;7.084;2023-07-31T08:20:53;3.10;;;2.42;;
37559;SDS011;23398;50.928;7.084;2023-07-31T08:23:19;3.70;;;2.55;;
37559;SDS011;23398;50.928;7.084;2023-07-31T08:25:45;4.70;;;2.15;;
37559;SDS011;23398;50.928;7.084;2023-07-31T08:28:11;5.30;;;2.55;;
37559;SDS011;23398;50.928;7.084;2023-07-31T08:30:36;3.67;;;2.50;;
37559;SDS011;23398;50.928;7.084;2023-07-31T08:33:02;4.20;;;2.53;;
37559;SDS011;23398;50.928;7.084;2023-07-31T08:35:28;3.13;;;2.30;;
37559;SDS011;23398;50.928;7.084;2023-07-31T08:37:54;3.60;;;2.50;;
37559;SDS011;23398;50.928;7.084;2023-07-31T08:40:20;3.42;;;2.05;;
37559;SDS011;23398;50.928;7.084;2023-07-31T08:42:47;2.45;;;2.03;;
37559;SDS011;23398;50.928;7.084;2023-07-31T08:45:17;3.70;;;2.22;;
37559;SDS011;23398;50.928;7.084;2023-07-31T08:47:47;2.28;;;2.00;;
37559;SDS011;23398;50.928;7.084;2023-07-31T08:50:15;3.35;;;2.28;;
37559;SDS011;23398;50.928;7.084;2023-07-31T08:52:41;3.55;;;2.15;;
37559;SDS011;23398;50.928;7.084;2023-07-31T08:55:07;2.53;;;2.13;;
37559;SDS011;23398;50.928;7.084;2023-07-31T08:57:34;3.38;;;2.38;;
37559;SDS011;23398;50.928;7.084;2023-07-31T09:00:02;4.00;;;2.17;;
37559;SDS011;23398;50.928;7.084;2023-07-31T09:02:31;2.78;;;2.20;;
37559;SDS011;23398;50.928;7.084;2023-07-31T09:05:07;2.47;;;2.03;;
37559;SDS011;23398;50.928;7.084;2023-07-31T09:07:35;4.00;;;2.00;;
37559;SDS011;23398;50.928;7.084;2023-07-31T09:10:02;3.28;;;2.25;;
37559;SDS011;23398;50.928;7.084;2023-07-31T09:12:28;3.42;;;2.20;;
37559;SDS011;23398;50.928;7.084;2023-07-31T09:14:54;3.00;;;2.10;;
37559;SDS011;23398;50.928;7.084;2023-07-31T09:17:32;3.00;;;1.92;;
37559;SDS011;23398;50.928;7.084;2023-07-31T09:20:16;2.90;;;2.10;;
37559;SDS011;23398;50.928;7.084;2023-07-31T09:22:46;4.60;;;2.30;;
37559;SDS011;23398;50.928;7.084;2023-07-31T09:25:17;4.25;;;2.78;;
37559;SDS011;23398;50.928;7.084;2023-07-31T09:27:59;3.55;;;2.40;;
37559;SDS011;23398;50.928;7.084;2023-07-31T09:30:27;3.05;;;2.28;;
37559;SDS011;23398;50.928;7.084;2023-07-31T09:33:03;3.63;;;2.10;;
37559;SDS011;23398;50.928;7.084;2023-07-31T09:35:32;2.38;;;1.83;;
37559;SDS011;23398;50.928;7.084;2023-07-31T09:38:02;3.22;;;2.10;;
37559;SDS011;23398;50.928;7.084;2023-07-31T09:40:31;3.35;;;2.22;;
37559;SDS011;23398;50.928;7.084;2023-07-31T09:43:08;2.88;;;1.95;;
37559;SDS011;23398;50.928;7.084;2023-07-31T09:45:41;2.45;;;2.08;;
37559;SDS011;23398;50.928;7.084;2023-07-31T09:50:36;2.97;;;2.10;;
37559;SDS011;23398;50.928;7.084;2023-07-31T09:53:03;2.88;;;1.90;;
37559;SDS011;23398;50.928;7.084;2023-07-31T09:55:30;2.70;;;2.20;;
37559;SDS011;23398;50.928;7.084;2023-07-31T09:57:57;2.83;;;2.08;;
37559;SDS011;23398;50.928;7.084;2023-07-31T10:00:23;3.83;;;1.90;;
37559;SDS011;23398;50.928;7.084;2023-07-31T10:02:52;4.20;;;2.10;;
37559;SDS011;23398;50.928;7.084;2023-07-31T10:05:18;3.83;;;2.13;;
37559;SDS011;23398;50.928;7.084;2023-07-31T10:07:51;2.80;;;1.98;;
37559;SDS011;23398;50.928;7.084;2023-07-31T10:10:20;3.28;;;2.10;;
37559;SDS011;23398;50.928;7.084;2023-07-31T10:12:47;4.85;;;1.98;;
37559;SDS011;23398;50.928;7.084;2023-07-31T10:15:14;2.47;;;1.73;;
37559;SDS011;23398;50.928;7.084;2023-07-31T10:17:40;2.60;;;2.00;;
37559;SDS011;23398;50.928;7.084;2023-07-31T10:20:06;3.95;;;2.05;;
37559;SDS011;23398;50.928;7.084;2023-07-31T10:22:33;2.78;;;2.05;;
37559;SDS011;23398;50.928;7.084;2023-07-31T10:24:59;2.70;;;1.98;;
37559;SDS011;23398;50.928;7.084;2023-07-31T10:27:25;2.28;;;1.70;;
37559;SDS011;23398;50.928;7.084;2023-07-31T10:29:51;2.70;;;1.90;;
37559;SDS011;23398;50.928;7.084;2023-07-31T10:32:19;3.97;;;2.20;;
37559;SDS011;23398;50.928;7.084;2023-07-31T10:34:46;3.28;;;2.08;;
37559;SDS011;23398;50.928;7.084;2023-07-31T10:37:24;3.22;;;1.80;;
37559;SDS011;23398;50.928;7.084;2023-07-31T10:40:00;2.75;;;2.03;;
37559;SDS011;23398;50.928;7.084;2023-07-31T10:42:36;2.92;;;1.75;;
37559;SDS011;23398;50.928;7.084;2023-07-31T10:45:09;3.17;;;1.90;;
37559;SDS011;23398;50.928;7.084;2023-07-31T10:47:39;2.72;;;2.05;;
37559;SDS011;23398;50.928;7.084;2023-07-31T10:52:50;2.63;;;1.90;;
37559;SDS011;23398;50.928;7.084;2023-07-31T11:00:38;2.70;;;1.95;;
37559;SDS011;23398;50.928;7.084;2023-07-31T11:03:06;3.72;;;2.03;;
37559;SDS011;23398;50.928;7.084;2023-07-31T11:05:41;3.53;;;2.05;;
37559;SDS011;23398;50.928;7.084;2023-07-31T11:08:25;2.75;;;1.90;;
37559;SDS011;23398;50.928;7.084;2023-07-31T11:13:26;4.32;;;2.00;;
37559;SDS011;23398;50.928;7.084;2023-07-31T11:15:55;3.15;;;1.88;;
37559;SDS011;23398;50.928;7.084;2023-07-31T11:18:21;3.80;;;2.08;;
37559;SDS011;23398;50.928;7.084;2023-07-31T11:20:46;3.47;;;2.10;;
37559;SDS011;23398;50.928;7.084;2023-07-31T11:23:12;2.78;;;2.00;;
37559;SDS011;23398;50.928;7.084;2023-07-31T11:25:42;2.75;;;1.63;;
37559;SDS011;23398;50.928;7.084;2023-07-31T11:28:09;1.85;;;1.27;;
37559;SDS011;23398;50.928;7.084;2023-07-31T11:30:38;1.50;;;1.40;;
37559;SDS011;23398;50.928;7.084;2023-07-31T11:33:06;2.25;;;1.35;;
37559;SDS011;23398;50.928;7.084;2023-07-31T11:35:40;3.53;;;1.38;;
37559;SDS011;23398;50.928;7.084;2023-07-31T11:38:11;2.30;;;1.40;;
37559;SDS011;23398;50.928;7.084;2023-07-31T11:40:45;1.60;;;1.40;;
37559;SDS011;23398;50.928;7.084;2023-07-31T11:43:11;1.38;;;1.25;;
37559;SDS011;23398;50.928;7.084;2023-07-31T11:45:41;1.40;;;1.13;;
37559;SDS011;23398;50.928;7.084;2023-07-31T11:48:06;1.60;;;1.10;;
37559;SDS011;23398;50.928;7.084;2023-07-31T11:50:33;1.83;;;1.15;;
37559;SDS011;23398;50.928;7.084;2023-07-31T11:53:00;1.40;;;1.00;;
37559;SDS011;23398;50.928;7.084;2023-07-31T11:55:31;2.20;;;1.20;;
37559;SDS011;23398;50.928;7.084;2023-07-31T11:57:57;1.15;;;1.00;;
37559;SDS011;23398;50.928;7.084;2023-07-31T12:00:23;2.70;;;1.00;;
37559;SDS011;23398;50.928;7.084;2023-07-31T12:02:50;1.10;;;1.00;;
37559;SDS011;23398;50.928;7.084;2023-07-31T12:05:16;1.00;;;0.90;;
37559;SDS011;23398;50.928;7.084;2023-07-31T12:07:46;0.80;;;0.80;;
37559;SDS011;23398;50.928;7.084;2023-07-31T12:10:26;0.77;;;0.77;;
37559;SDS011;23398;50.928;7.084;2023-07-31T12:15:39;1.70;;;0.90;;
37559;SDS011;23398;50.928;7.084;2023-07-31T12:18:07;0.75;;;0.70;;
37559;SDS011;23398;50.928;7.084;2023-07-31T12:20:41;0.98;;;0.80;;
37559;SDS011;23398;50.928;7.084;2023-07-31T12:23:12;0.80;;;0.70;;
37559;SDS011;23398;50.928;7.084;2023-07-31T12:28:47;0.73;;;0.73;;
37559;SDS011;23398;50.928;7.084;2023-07-31T12:31:14;1.65;;;0.85;;
37559;SDS011;23398;50.928;7.084;2023-07-31T12:33:42;1.40;;;0.80;;
37559;SDS011;23398;50.928;7.084;2023-07-31T12:36:11;0.80;;;0.80;;
37559;SDS011;23398;50.928;7.084;2023-07-31T12:38:41;0.88;;;0.73;;
37559;SDS011;23398;50.928;7.084;2023-07-31T12:41:07;0.68;;;0.68;;
37559;SDS011;23398;50.928;7.084;2023-07-31T12:43:33;2.22;;;1.00;;
37559;SDS011;23398;50.928;7.084;2023-07-31T12:46:03;1.00;;;0.90;;
37559;SDS011;23398;50.928;7.084;2023-07-31T12:48:29;1.30;;;0.95;;
37559;SDS011;23398;50.928;7.084;2023-07-31T12:50:55;1.92;;;1.17;;
37559;SDS011;23398;50.928;7.084;2023-07-31T12:53:20;0.90;;;0.90;;
37559;SDS011;23398;50.928;7.084;2023-07-31T12:55:46;1.15;;;1.05;;
37559;SDS011;23398;50.928;7.084;2023-07-31T12:58:12;1.65;;;1.30;;
37559;SDS011;23398;50.928;7.084;2023-07-31T13:00:37;2.28;;;1.27;;
37559;SDS011;23398;50.928;7.084;2023-07-31T13:03:03;1.67;;;1.33;;
37559;SDS011;23398;50.928;7.084;2023-07-31T13:05:28;1.40;;;1.20;;
37559;SDS011;23398;50.928;7.084;2023-07-31T13:07:54;1.83;;;1.48;;
37559;SDS011;23398;50.928;7.084;2023-07-31T13:10:21;2.35;;;1.50;;
37559;SDS011;23398;50.928;7.084;2023-07-31T13:12:47;1.55;;;1.45;;
37559;SDS011;23398;50.928;7.084;2023-07-31T13:15:13;1.90;;;1.52;;
37559;SDS011;23398;50.928;7.084;2023-07-31T13:17:39;4.22;;;1.90;;
37559;SDS011;23398;50.928;7.084;2023-07-31T13:20:05;1.67;;;1.58;;
37559;SDS011;23398;50.928;7.084;2023-07-31T13:22:31;2.10;;;1.85;;
37559;SDS011;23398;50.928;7.084;2023-07-31T13:24:57;2.00;;;1.70;;
37559;SDS011;23398;50.928;7.084;2023-07-31T13:27:22;3.30;;;1.70;;
37559;SDS011;23398;50.928;7.084;2023-07-31T13:29:49;1.77;;;1.63;;
37559;SDS011;23398;50.928;7.084;2023-07-31T13:32:16;3.05;;;2.00;;
37559;SDS011;23398;50.928;7.084;2023-07-31T13:34:43;3.38;;;1.92;;
37559;SDS011;23398;50.928;7.084;2023-07-31T13:37:09;2.00;;;1.80;;
37559;SDS011;23398;50.928;7.084;2023-07-31T13:39:34;2.30;;;1.92;;
37559;SDS011;23398;50.928;7.084;2023-07-31T13:42:00;2.00;;;1.70;;
37559;SDS011;23398;50.928;7.084;2023-07-31T13:44:27;2.92;;;2.00;;
37559;SDS011;23398;50.928;7.084;2023-07-31T13:46:53;2.00;;;1.70;;
37559;SDS011;23398;50.928;7.084;2023-07-31T13:49:18;2.15;;;1.95;;
37559;SDS011;23398;50.928;7.084;2023-07-31T13:51:44;3.05;;;2.10;;
37559;SDS011;23398;50.928;7.084;2023-07-31T13:54:11;2.35;;;1.98;;
37559;SDS011;23398;50.928;7.084;2023-07-31T13:56:37;2.20;;;2.00;;
37559;SDS011;23398;50.928;7.084;2023-07-31T13:59:02;2.33;;;1.80;;
37559;SDS011;23398;50.928;7.084;2023-07-31T14:01:28;1.92;;;1.80;;
37559;SDS011;23398;50.928;7.084;2023-07-31T14:03:54;2.72;;;1.98;;
37559;SDS011;23398;50.928;7.084;2023-07-31T14:06:19;1.90;;;1.70;;
37559;SDS011;23398;50.928;7.084;2023-07-31T14:08:45;2.40;;;1.90;;
37559;SDS011;23398;50.928;7.084;2023-07-31T14:11:10;1.90;;;1.67;;
37559;SDS011;23398;50.928;7.084;2023-07-31T14:13:36;2.30;;;1.60;;
37559;SDS011;23398;50.928;7.084;2023-07-31T14:16:01;2.08;;;1.80;;
37559;SDS011;23398;50.928;7.084;2023-07-31T14:18:27;2.45;;;1.80;;
37559;SDS011;23398;50.928;7.084;2023-07-31T14:20:52;2.63;;;2.05;;
37559;SDS011;23398;50.928;7.084;2023-07-31T14:23:18;1.52;;;1.40;;
37559;SDS011;23398;50.928;7.084;2023-07-31T14:25:45;2.03;;;1.40;;
37559;SDS011;23398;50.928;7.084;2023-07-31T14:28:10;1.50;;;1.40;;
37559;SDS011;23398;50.928;7.084;2023-07-31T14:30:36;1.40;;;1.30;;
37559;SDS011;23398;50.928;7.084;2023-07-31T14:33:02;1.48;;;1.38;;
37559;SDS011;23398;50.928;7.084;2023-07-31T14:35:27;2.67;;;1.50;;
37559;SDS011;23398;50.928;7.084;2023-07-31T14:37:53;1.73;;;1.60;;
37559;SDS011;23398;50.928;7.084;2023-07-31T14:40:19;1.70;;;1.50;;
37559;SDS011;23398;50.928;7.084;2023-07-31T14:42:45;1.60;;;1.50;;
37559;SDS011;23398;50.928;7.084;2023-07-31T14:45:10;1.70;;;1.55;;
37559;SDS011;23398;50.928;7.084;2023-07-31T14:47:36;2.33;;;1.83;;
37559;SDS011;23398;50.928;7.084;2023-07-31T14:50:02;1.90;;;1.67;;
37559;SDS011;23398;50.928;7.084;2023-07-31T14:52:28;2.00;;;1.70;;
37559;SDS011;23398;50.928;7.084;2023-07-31T14:54:54;1.67;;;1.58;;
37559;SDS011;23398;50.928;7.084;2023-07-31T14:57:20;1.63;;;1.52;;
37559;SDS011;23398;50.928;7.084;2023-07-31T14:59:45;1.85;;;1.70;;
37559;SDS011;23398;50.928;7.084;2023-07-31T15:02:11;2.80;;;1.80;;
37559;SDS011;23398;50.928;7.084;2023-07-31T15:04:37;2.20;;;1.90;;
37559;SDS011;23398;50.928;7.084;2023-07-31T15:07:03;3.35;;;1.90;;
37559;SDS011;23398;50.928;7.084;2023-07-31T15:09:29;2.50;;;2.10;;
37559;SDS011;23398;50.928;7.084;2023-07-31T15:11:55;2.40;;;2.00;;